createdAt,value
2024-02-12T00:03:50.257Z,7.50
2024-02-12T00:13:57.901Z,9.20
2024-02-12T00:24:05.335Z,7.70
2024-02-12T00:34:12.816Z,8.90
2024-02-12T00:44:20.181Z,7.80
2024-02-12T00:54:27.797Z,8.00
2024-02-12T01:04:35.591Z,6.80
2024-02-12T01:14:42.335Z,7.60
2024-02-12T01:24:51.500Z,6.90
2024-02-12T01:34:59.842Z,7.70
2024-02-12T01:45:11.090Z,5.70
2024-02-12T01:55:18.935Z,4.70
2024-02-12T02:05:25.449Z,5.30
2024-02-12T02:15:33.989Z,3.80
2024-02-12T02:25:41.645Z,4.30
2024-02-12T02:35:49.410Z,4.40
2024-02-12T02:45:56.465Z,4.00
2024-02-12T02:56:03.298Z,3.70
2024-02-12T03:06:13.910Z,2.70
2024-02-12T03:16:23.277Z,3.50
2024-02-12T03:36:35.793Z,3.80
2024-02-12T03:46:47.436Z,3.20
2024-02-12T03:57:12.055Z,3.30
2024-02-12T04:07:19.311Z,4.10
2024-02-12T04:17:26.606Z,5.00
2024-02-12T04:27:35.070Z,5.00
2024-02-12T04:37:42.180Z,3.90
2024-02-12T04:47:51.690Z,4.60
2024-02-12T04:57:58.927Z,4.90
2024-02-12T05:08:05.090Z,5.30
2024-02-12T05:18:16.384Z,9.90
2024-02-12T05:28:22.349Z,7.60
2024-02-12T05:38:29.419Z,5.40
2024-02-12T05:48:39.769Z,4.40
2024-02-12T05:58:47.240Z,5.10
2024-02-12T06:08:54.188Z,3.90
2024-02-12T06:19:03.080Z,5.80
2024-02-12T06:29:12.250Z,4.20
2024-02-12T06:39:18.087Z,6.20
2024-02-12T06:49:25.289Z,8.90
2024-02-12T06:59:32.795Z,6.20
2024-02-12T07:09:39.957Z,7.40
2024-02-12T07:19:47.452Z,9.50
2024-02-12T07:29:54.533Z,5.80
2024-02-12T07:40:02.858Z,5.00
2024-02-12T07:50:10.930Z,4.70
2024-02-12T08:00:19.827Z,5.20
2024-02-12T08:10:27.248Z,5.80
2024-02-12T08:20:34.661Z,4.20
2024-02-12T08:30:42.011Z,3.90
2024-02-12T08:40:51.473Z,4.60
2024-02-12T08:50:59.814Z,6.50
2024-02-12T09:01:10.583Z,3.90
2024-02-12T09:11:17.000Z,3.30
2024-02-12T09:21:24.049Z,4.90
2024-02-12T09:31:32.831Z,2.60
2024-02-12T09:41:39.992Z,2.60
2024-02-12T09:51:48.343Z,3.00
2024-02-12T10:01:55.660Z,3.30
2024-02-12T10:12:09.976Z,2.70
2024-02-12T10:22:17.589Z,3.40
2024-02-12T10:32:25.276Z,3.00
2024-02-12T10:42:34.749Z,3.60
2024-02-12T10:52:43.796Z,3.70
2024-02-12T11:02:52.718Z,3.30
2024-02-12T11:13:03.327Z,3.70
2024-02-12T11:23:10.573Z,3.20
2024-02-12T11:33:17.906Z,3.00
2024-02-12T11:43:25.119Z,2.90
2024-02-12T11:53:32.537Z,2.80
2024-02-12T12:03:39.320Z,3.80
2024-02-12T12:13:46.719Z,2.70
2024-02-12T12:23:52.717Z,2.90
2024-02-12T12:33:59.713Z,2.60
2024-02-12T12:44:06.977Z,3.20
2024-02-12T12:54:14.165Z,3.70
2024-02-12T13:04:21.274Z,3.20
2024-02-12T13:14:28.428Z,3.70
2024-02-12T13:24:35.492Z,4.50
2024-02-12T13:34:42.175Z,3.60
2024-02-12T13:44:49.358Z,3.50
2024-02-12T13:54:56.939Z,4.10
2024-02-12T14:05:04.868Z,3.50
2024-02-12T14:15:16.395Z,3.10
2024-02-12T14:25:41.743Z,3.10
2024-02-12T14:35:51.426Z,5.80
2024-02-12T14:46:00.626Z,6.40
2024-02-12T14:56:08.670Z,8.90
2024-02-12T15:06:16.303Z,7.70
2024-02-12T15:16:22.874Z,7.10
2024-02-12T15:26:30.816Z,14.90
2024-02-12T15:36:41.262Z,13.70
2024-02-12T15:46:49.320Z,12.50
2024-02-12T15:57:00.828Z,10.40
2024-02-12T16:07:07.936Z,16.10
2024-02-12T16:17:14.705Z,15.10
2024-02-12T16:27:21.750Z,12.80
2024-02-12T16:37:31.733Z,12.30
2024-02-12T16:47:38.903Z,7.10
2024-02-12T16:57:46.275Z,9.60
2024-02-12T17:08:02.388Z,10.20
2024-02-12T17:18:15.170Z,10.80
2024-02-12T17:28:23.956Z,19.90
2024-02-12T17:38:33.518Z,9.00
2024-02-12T17:48:42.681Z,6.90
2024-02-12T17:58:49.013Z,15.00
2024-02-12T18:08:55.202Z,14.50
2024-02-12T18:19:02.823Z,14.40
2024-02-12T18:29:09.866Z,8.80
2024-02-12T18:39:16.465Z,8.70
2024-02-12T18:49:23.012Z,31.90
2024-02-12T18:59:30.005Z,28.00
2024-02-12T19:09:37.455Z,23.20
2024-02-12T19:19:44.751Z,24.30
2024-02-12T19:29:51.130Z,17.60
2024-02-12T19:39:58.382Z,30.40
2024-02-12T19:50:07.178Z,24.80
2024-02-12T20:00:10.370Z,10.30
2024-02-12T20:10:17.808Z,17.40
2024-02-12T20:20:24.004Z,15.30
2024-02-12T20:40:37.959Z,18.70
2024-02-12T21:00:51.515Z,18.30
2024-02-12T21:10:58.510Z,26.00
2024-02-12T21:21:06.821Z,26.70
2024-02-12T21:31:13.966Z,33.30
2024-02-12T21:41:43.047Z,24.90
2024-02-12T21:51:51.422Z,18.60
2024-02-12T22:01:58.458Z,21.90
2024-02-12T22:12:04.257Z,9.90
2024-02-12T22:22:11.214Z,12.50
2024-02-12T22:32:17.743Z,11.60
2024-02-12T22:42:24.774Z,8.00
2024-02-12T22:52:31.678Z,8.00
2024-02-12T23:02:39.803Z,7.00
2024-02-12T23:12:46.116Z,9.00
2024-02-12T23:22:53.037Z,10.10
2024-02-12T23:33:00.956Z,11.80
2024-02-12T23:43:06.305Z,9.20
2024-02-12T23:53:12.357Z,8.80
